Time;durP1;ratioP1;P1;durP2;ratioP2;P2;SDS_P1;SDS_P2;PMS_P1;PMS_P2;Temp;Humidity;BMP_temperature;BMP_pressure;BME280_temperature;BME280_humidity;BME280_pressure;Samples;Min_cycle;Max_cycle;Signal;HPM_P1;HPM_P2
2023/01/24 00:00:26;;;;;;;42.03;24.93;;;2.80;96.90;;;;;;4707959;30;20049;-82
2023/01/24 00:02:51;;;;;;;95.30;26.47;;;2.80;96.90;;;;;;4708413;30;20080;-83
2023/01/24 00:05:17;;;;;;;39.70;24.13;;;2.80;97.00;;;;;;4708003;30;20084;-83
2023/01/24 00:07:43;;;;;;;121.25;28.58;;;2.80;97.00;;;;;;4709622;30;20678;-83
2023/01/24 00:10:09;;;;;;;44.88;25.08;;;2.80;97.00;;;;;;4711178;30;20061;-83
2023/01/24 00:12:34;;;;;;;40.75;24.23;;;2.80;97.00;;;;;;4723009;30;20128;-82
2023/01/24 00:15:00;;;;;;;42.73;25.27;;;2.80;97.10;;;;;;4709907;30;20147;-83
2023/01/24 00:17:25;;;;;;;43.17;25.57;;;2.80;97.00;;;;;;4705985;30;20589;-82
2023/01/24 00:19:51;;;;;;;42.10;25.33;;;2.80;97.10;;;;;;4710918;30;20057;-82
2023/01/24 00:22:16;;;;;;;107.50;28.53;;;2.80;97.10;;;;;;4722660;30;20048;-82
2023/01/24 00:24:42;;;;;;;42.30;24.92;;;2.80;97.10;;;;;;4708900;30;20052;-83
2023/01/24 00:27:08;;;;;;;42.58;25.77;;;2.80;97.10;;;;;;4725134;30;20617;-83
2023/01/24 00:29:33;;;;;;;42.17;24.80;;;2.80;97.10;;;;;;4706016;30;20056;-83
2023/01/24 00:31:59;;;;;;;44.83;26.60;;;2.80;97.10;;;;;;4726355;30;20099;-82
2023/01/24 00:34:24;;;;;;;41.17;25.23;;;2.80;97.10;;;;;;4719984;30;20051;-83
2023/01/24 00:36:50;;;;;;;42.23;25.50;;;2.80;97.10;;;;;;4688091;30;20084;-82
2023/01/24 00:39:16;;;;;;;197.03;30.27;;;2.80;97.10;;;;;;4719034;30;20053;-82
2023/01/24 00:41:41;;;;;;;40.80;25.90;;;2.80;97.20;;;;;;4687010;30;20147;-82
2023/01/24 00:44:07;;;;;;;43.38;25.63;;;2.80;97.20;;;;;;4693515;30;20053;-83
2023/01/24 00:46:32;;;;;;;41.93;26.10;;;2.80;97.20;;;;;;4724731;30;20044;-82
2023/01/24 00:49:00;;;;;;;42.92;26.60;;;2.80;97.20;;;;;;4722712;30;20098;-82
2023/01/24 00:51:25;;;;;;;47.50;26.90;;;2.80;97.20;;;;;;4708161;30;20052;-84
2023/01/24 00:53:51;;;;;;;46.27;27.27;;;2.80;97.20;;;;;;4724289;30;20060;-82
2023/01/24 00:56:16;;;;;;;51.17;28.60;;;2.80;97.20;;;;;;4721895;30;20041;-85
2023/01/24 00:58:42;;;;;;;46.28;27.50;;;2.80;97.20;;;;;;4730469;30;20520;-83
2023/01/24 01:01:08;;;;;;;46.67;27.17;;;2.80;97.20;;;;;;4706367;30;20064;-85
2023/01/24 01:03:33;;;;;;;45.73;28.03;;;2.80;97.20;;;;;;4725784;30;20498;-84
2023/01/24 01:06:02;;;;;;;48.50;27.93;;;2.80;97.20;;;;;;4724217;30;20044;-85
2023/01/24 01:08:28;;;;;;;47.80;28.52;;;2.80;97.30;;;;;;4725650;30;20139;-85
2023/01/24 01:10:53;;;;;;;48.47;27.33;;;2.70;97.20;;;;;;4709631;30;20045;-84
2023/01/24 01:13:19;;;;;;;49.37;28.27;;;2.80;97.30;;;;;;4719810;30;20057;-85
2023/01/24 01:15:44;;;;;;;45.40;27.00;;;2.80;97.20;;;;;;4725107;30;20055;-85
2023/01/24 01:18:10;;;;;;;45.47;26.93;;;2.80;97.20;;;;;;4719650;30;20666;-87
2023/01/24 01:20:36;;;;;;;49.53;27.23;;;2.80;97.30;;;;;;4723703;30;20060;-83
2023/01/24 01:23:02;;;;;;;51.50;28.67;;;2.80;97.30;;;;;;4706710;30;20052;-83
2023/01/24 01:25:28;;;;;;;46.40;27.60;;;2.80;97.30;;;;;;4724843;30;20148;-86
2023/01/24 01:27:53;;;;;;;48.08;28.40;;;2.80;97.30;;;;;;4707559;30;20510;-86
2023/01/24 01:30:19;;;;;;;45.75;27.13;;;2.80;97.30;;;;;;4723342;30;20048;-85
2023/01/24 01:32:44;;;;;;;46.95;27.95;;;2.80;97.30;;;;;;4692953;30;20095;-85
2023/01/24 01:35:10;;;;;;;46.23;26.83;;;2.80;97.30;;;;;;4722803;30;20534;-82
2023/01/24 01:37:36;;;;;;;45.10;28.03;;;2.80;97.30;;;;;;4723539;30;20435;-86
2023/01/24 01:40:02;;;;;;;45.47;27.42;;;2.80;97.40;;;;;;4706783;30;20096;-84
2023/01/24 01:42:40;;;;;;;49.83;28.33;;;2.70;97.40;;;;;;4708009;30;20509;-86
2023/01/24 01:45:34;;;;;;;48.72;28.55;;;2.70;97.30;;;;;;4703892;30;20076;-84
2023/01/24 01:48:12;;;;;;;48.50;27.90;;;2.70;97.40;;;;;;4719037;30;20057;-85
2023/01/24 01:50:40;;;;;;;52.70;28.73;;;2.70;97.40;;;;;;4723174;30;20461;-84
2023/01/24 01:53:06;;;;;;;;;;;2.70;97.40;;;;;;4705561;30;20143;-87
2023/01/24 01:55:35;;;;;;;45.23;26.33;;;2.70;97.50;;;;;;4711485;30;20429;-82
2023/01/24 01:58:02;;;;;;;57.27;27.47;;;2.70;97.50;;;;;;4721070;30;20080;-83
2023/01/24 02:00:28;;;;;;;111.43;30.13;;;2.70;97.50;;;;;;4725548;30;20039;-85
2023/01/24 02:03:37;;;;;;;42.50;26.20;;;2.70;97.50;;;;;;4707835;30;20126;-85
2023/01/24 02:05:45;;;;;;;43.73;26.73;;;2.70;97.50;;;;;;4708386;30;20061;-85
2023/01/24 02:08:15;;;;;;;41.57;26.10;;;2.70;97.50;;;;;;4723180;30;20057;-83
2023/01/24 02:13:25;;;;;;;64.67;27.80;;;2.70;97.50;;;;;;4707438;30;20052;-84
2023/01/24 02:16:02;;;;;;;42.43;25.80;;;2.70;97.40;;;;;;4708026;30;20052;-87
2023/01/24 02:18:31;;;;;;;41.47;25.57;;;2.70;97.50;;;;;;4707785;30;20060;-85
2023/01/24 02:20:57;;;;;;;44.03;26.60;;;2.70;97.50;;;;;;4708512;30;20064;-85
2023/01/24 02:23:51;;;;;;;41.77;26.47;;;2.70;97.80;;;;;;4721476;30;20464;-86
2023/01/24 02:26:25;;;;;;;48.55;27.42;;;2.70;97.40;;;;;;4724690;30;20855;-87
2023/01/24 02:29:11;;;;;;;40.97;26.53;;;2.70;97.60;;;;;;4707096;30;20822;-83
2023/01/24 02:31:56;;;;;;;43.53;26.00;;;2.70;97.50;;;;;;4708059;30;20064;-87
2023/01/24 02:34:22;;;;;;;42.83;25.20;;;2.70;97.50;;;;;;4704279;30;20052;-86
2023/01/24 02:36:53;;;;;;;46.60;27.03;;;2.70;97.50;;;;;;4721922;30;20195;-82
2023/01/24 02:39:30;;;;;;;40.07;25.53;;;2.70;97.50;;;;;;4707335;30;20061;-83
2023/01/24 02:42:17;;;;;;;39.87;23.97;;;2.70;97.40;;;;;;4724670;30;20066;-84
2023/01/24 02:44:53;;;;;;;43.93;25.70;;;2.70;97.40;;;;;;4722722;30;20073;-83
2023/01/24 02:47:18;;;;;;;41.20;25.83;;;2.80;97.40;;;;;;4702707;30;20064;-83
2023/01/24 02:49:44;;;;;;;41.27;25.87;;;2.70;97.40;;;;;;4716257;30;20084;-83
2023/01/24 02:54:54;;;;;;;40.90;26.47;;;2.80;97.40;;;;;;4717122;30;20633;-81
2023/01/24 03:00:06;;;;;;;45.30;27.53;;;2.80;97.30;;;;;;4698934;30;20044;-86
2023/01/24 03:02:32;;;;;;;44.17;26.60;;;2.80;97.30;;;;;;4714022;30;20052;-83
2023/01/24 03:04:57;;;;;;;42.17;26.90;;;2.70;97.30;;;;;;4717020;30;20110;-82
2023/01/24 03:07:23;;;;;;;42.60;25.88;;;2.80;97.30;;;;;;4699548;30;20064;-87
2023/01/24 03:09:48;;;;;;;41.15;25.77;;;2.70;97.30;;;;;;4716879;30;20044;-85
2023/01/24 03:34:30;;;;;;;25.13;18.50;;;2.80;96.40;;;;;;4701949;30;20076;-86
2023/01/24 03:36:56;;;;;;;25.67;18.70;;;2.80;95.90;;;;;;4713847;30;20041;-82
2023/01/24 03:42:06;;;;;;;28.83;19.73;;;2.80;95.70;;;;;;4699742;30;20056;-83
2023/01/24 03:44:31;;;;;;;30.93;21.03;;;2.80;95.50;;;;;;4714372;30;20533;-82
2023/01/24 03:46:57;;;;;;;27.73;20.20;;;2.80;95.50;;;;;;4715517;30;20153;-85
2023/01/24 03:54:51;;;;;;;31.83;21.33;;;2.80;95.20;;;;;;4700276;30;20049;-83
2023/01/24 03:57:17;;;;;;;29.70;21.10;;;2.90;95.20;;;;;;4702632;30;20049;-85
2023/01/24 03:59:42;;;;;;;33.45;22.20;;;2.90;95.30;;;;;;4702230;30;20140;-85
2023/01/24 04:02:08;;;;;;;33.53;21.90;;;2.90;95.30;;;;;;4718388;30;20110;-83
2023/01/24 04:07:18;;;;;;;36.93;21.77;;;2.90;95.50;;;;;;4714502;30;20060;-84
2023/01/24 04:09:44;;;;;;;32.33;21.83;;;2.90;95.60;;;;;;4702571;30;20052;-84
2023/01/24 04:12:09;;;;;;;33.43;22.43;;;2.80;95.50;;;;;;4701401;30;20052;-85
2023/01/24 04:14:35;;;;;;;31.97;21.93;;;2.80;95.50;;;;;;4702260;30;20143;-85
2023/01/24 04:17:00;;;;;;;28.00;19.77;;;2.80;95.40;;;;;;4705776;30;20068;-83
2023/01/24 04:19:26;;;;;;;28.00;19.57;;;2.80;95.10;;;;;;4717517;30;20697;-82
2023/01/24 04:21:51;;;;;;;29.37;21.43;;;2.80;95.10;;;;;;4718720;30;20966;-83
2023/01/24 04:24:17;;;;;;;29.03;20.97;;;2.80;95.10;;;;;;4704502;30;20044;-84
2023/01/24 04:26:42;;;;;;;32.53;20.90;;;2.80;95.10;;;;;;4705150;30;20053;-85
2023/01/24 04:29:08;;;;;;;32.30;22.30;;;2.80;95.20;;;;;;4721263;30;20045;-85
2023/01/24 04:31:34;;;;;;;29.73;21.30;;;2.80;95.30;;;;;;4726711;30;20049;-82
2023/01/24 04:34:00;;;;;;;28.37;20.30;;;2.80;95.20;;;;;;4706581;30;21169;-87
2023/01/24 04:36:25;;;;;;;30.30;21.77;;;2.80;94.90;;;;;;4708990;30;20064;-83
2023/01/24 04:38:51;;;;;;;30.23;21.67;;;2.80;94.70;;;;;;4722815;30;20490;-85
2023/01/24 04:41:16;;;;;;;28.67;21.27;;;2.80;94.70;;;;;;4708926;30;20455;-85
2023/01/24 04:43:42;;;;;;;29.13;20.73;;;2.80;94.70;;;;;;4724451;30;20052;-85
2023/01/24 04:46:07;;;;;;;29.93;21.93;;;2.90;94.80;;;;;;4720780;30;20117;-85
2023/01/24 04:48:33;;;;;;;30.13;21.17;;;2.80;94.70;;;;;;4708301;30;20061;-83
2023/01/24 04:50:59;;;;;;;29.83;20.93;;;2.80;94.70;;;;;;4705991;30;21977;-85
2023/01/24 04:53:26;;;;;;;28.63;20.23;;;2.80;94.50;;;;;;4711079;30;20442;-84
2023/01/24 04:55:51;;;;;;;31.43;20.77;;;2.80;94.40;;;;;;4708013;30;20060;-83
2023/01/24 04:58:17;;;;;;;29.27;20.37;;;2.80;94.40;;;;;;4705802;30;20052;-87
2023/01/24 05:00:43;;;;;;;28.55;20.30;;;2.80;94.40;;;;;;4709554;30;20165;-87
2023/01/24 05:03:08;;;;;;;32.17;21.17;;;2.80;94.50;;;;;;4705333;30;20055;-86
2023/01/24 05:05:34;;;;;;;29.13;20.67;;;2.80;94.30;;;;;;4704007;30;20057;-84
2023/01/24 05:07:59;;;;;;;30.00;20.57;;;2.80;94.30;;;;;;4708085;30;20157;-83
2023/01/24 05:10:25;;;;;;;30.20;21.80;;;2.90;94.40;;;;;;4708296;30;20411;-86
2023/01/24 05:12:50;;;;;;;30.00;21.97;;;2.80;94.50;;;;;;4708638;30;20052;-83
2023/01/24 05:15:17;;;;;;;29.00;20.77;;;2.80;94.50;;;;;;4694386;30;20399;-83
2023/01/24 05:17:44;;;;;;;31.17;20.27;;;2.80;94.60;;;;;;4723677;30;20144;-83
2023/01/24 05:20:10;;;;;;;29.13;20.47;;;2.80;94.60;;;;;;4707862;30;20111;-82
2023/01/24 05:22:36;;;;;;;29.17;18.90;;;2.80;94.60;;;;;;4721389;30;20064;-82
2023/01/24 05:25:02;;;;;;;24.17;17.30;;;2.80;94.60;;;;;;4725463;30;20053;-83
2023/01/24 05:27:27;;;;;;;26.07;17.50;;;2.90;94.50;;;;;;4709304;30;20045;-87
2023/01/24 05:29:53;;;;;;;22.50;16.03;;;2.80;94.50;;;;;;4707958;30;20103;-86
2023/01/24 05:32:18;;;;;;;22.43;16.40;;;2.80;94.20;;;;;;4708439;30;20053;-87
2023/01/24 05:34:44;;;;;;;22.87;16.63;;;2.80;94.00;;;;;;4706579;30;20049;-83
2023/01/24 05:37:09;;;;;;;27.67;17.77;;;2.70;94.10;;;;;;4724415;30;20064;-82
2023/01/24 05:39:35;;;;;;;25.70;18.13;;;2.70;94.20;;;;;;4723224;30;20053;-82
2023/01/24 05:42:00;;;;;;;23.83;17.07;;;2.70;94.30;;;;;;4702129;30;20044;-83
2023/01/24 05:44:26;;;;;;;25.17;17.50;;;2.70;94.20;;;;;;4706839;30;20187;-84
2023/01/24 05:46:52;;;;;;;24.40;17.40;;;2.70;94.00;;;;;;4686686;30;20060;-82
2023/01/24 05:49:17;;;;;;;24.90;17.37;;;2.70;94.30;;;;;;4701983;30;20131;-82
2023/01/24 05:51:43;;;;;;;24.90;17.33;;;2.70;94.30;;;;;;4697952;30;20506;-82
2023/01/24 05:54:09;;;;;;;26.43;17.70;;;2.70;94.40;;;;;;4720742;30;20047;-82
2023/01/24 05:56:34;;;;;;;28.13;18.67;;;2.70;94.50;;;;;;4720300;30;20061;-82
2023/01/24 05:59:01;;;;;;;26.10;17.97;;;2.70;94.60;;;;;;4700151;30;20128;-83
2023/01/24 06:01:27;;;;;;;23.37;17.57;;;2.70;94.70;;;;;;4701602;30;20060;-81
2023/01/24 06:03:53;;;;;;;25.23;18.00;;;2.70;94.50;;;;;;4717039;30;20084;-82
2023/01/24 06:06:24;;;;;;;27.53;17.63;;;2.70;94.50;;;;;;4687605;30;20835;-80
2023/01/24 06:08:50;;;;;;;25.50;17.70;;;2.60;94.50;;;;;;4688795;30;20806;-83
2023/01/24 06:11:24;;;;;;;25.33;17.97;;;2.70;94.60;;;;;;4719384;30;20040;-81
2023/01/24 06:13:50;;;;;;;24.33;17.37;;;2.70;94.60;;;;;;4695365;30;20517;-83
2023/01/24 06:16:21;;;;;;;23.27;15.97;;;2.60;94.60;;;;;;4687614;30;20063;-81
2023/01/24 06:18:48;;;;;;;22.93;16.03;;;2.70;94.40;;;;;;4718881;30;20061;-83
2023/01/24 06:21:26;;;;;;;22.43;16.50;;;2.60;94.40;;;;;;4717813;30;20495;-82
2023/01/24 06:23:52;;;;;;;21.55;15.70;;;2.60;94.00;;;;;;4714954;30;20056;-84
2023/01/24 06:26:18;;;;;;;23.73;16.67;;;2.60;94.00;;;;;;4716655;30;20539;-84
2023/01/24 06:28:44;;;;;;;21.23;16.03;;;2.60;94.00;;;;;;4725531;30;20152;-82
2023/01/24 06:31:47;;;;;;;24.37;15.90;;;2.60;94.10;;;;;;4703496;30;20065;-82
2023/01/24 06:34:50;;;;;;;23.77;16.07;;;2.60;94.20;;;;;;4688862;30;20064;-83
2023/01/24 06:37:43;;;;;;;25.87;17.20;;;2.60;94.50;;;;;;4717696;30;20068;-81
2023/01/24 06:40:11;;;;;;;23.77;16.93;;;2.60;94.60;;;;;;4717585;30;20168;-82
2023/01/24 06:42:38;;;;;;;22.48;16.55;;;2.60;94.60;;;;;;4702508;30;20502;-86
2023/01/24 06:45:05;;;;;;;24.27;16.10;;;2.60;94.60;;;;;;4720948;30;20573;-83
2023/01/24 06:47:31;;;;;;;23.70;16.23;;;2.60;94.60;;;;;;4687660;30;20065;-83
2023/01/24 06:49:56;;;;;;;22.93;15.70;;;2.60;94.50;;;;;;4705173;30;20067;-77
2023/01/24 06:52:22;;;;;;;24.77;16.00;;;2.60;94.50;;;;;;4708237;30;20037;-79
2023/01/24 06:54:47;;;;;;;25.13;15.53;;;2.60;94.40;;;;;;4707369;30;20079;-81
2023/01/24 06:57:13;;;;;;;23.53;15.97;;;2.60;94.40;;;;;;4704714;30;20047;-78
2023/01/24 06:59:39;;;;;;;22.70;16.00;;;2.60;94.20;;;;;;4705243;30;20577;-79
2023/01/24 07:02:05;;;;;;;23.90;15.90;;;2.60;94.00;;;;;;4721033;30;20509;-80
2023/01/24 07:04:30;;;;;;;23.53;16.60;;;2.60;94.20;;;;;;4693928;30;20049;-81
2023/01/24 07:06:56;;;;;;;24.33;16.87;;;2.60;94.30;;;;;;4722788;30;20416;-81
2023/01/24 07:09:23;;;;;;;22.57;15.43;;;2.60;94.30;;;;;;4706821;30;20056;-81
2023/01/24 07:11:52;;;;;;;23.17;16.13;;;2.60;94.40;;;;;;4724257;30;20051;-81
2023/01/24 07:14:18;;;;;;;23.00;15.63;;;2.60;94.30;;;;;;4706069;30;20481;-81
2023/01/24 07:16:44;;;;;;;22.80;16.43;;;2.60;94.30;;;;;;4707886;30;20154;-81
2023/01/24 07:19:14;;;;;;;23.60;16.27;;;2.60;94.00;;;;;;4703831;30;20135;-80
2023/01/24 07:21:40;;;;;;;23.43;16.50;;;2.60;94.10;;;;;;4718148;30;20053;-80
2023/01/24 07:24:14;;;;;;;22.00;15.77;;;2.50;94.20;;;;;;4706268;30;20098;-79
2023/01/24 07:26:40;;;;;;;23.93;16.43;;;2.50;94.20;;;;;;4717930;30;20057;-81
2023/01/24 07:29:05;;;;;;;23.10;16.17;;;2.50;94.30;;;;;;4721791;30;20048;-81
2023/01/24 07:31:31;;;;;;;24.00;16.20;;;2.50;94.30;;;;;;4716617;30;20053;-77
2023/01/24 07:33:56;;;;;;;23.33;15.67;;;2.50;94.50;;;;;;4717735;30;20071;-80
2023/01/24 07:36:22;;;;;;;23.50;16.77;;;2.50;94.60;;;;;;4706398;30;20122;-77
2023/01/24 07:38:47;;;;;;;24.37;16.03;;;2.50;94.40;;;;;;4720460;30;20216;-80
2023/01/24 07:41:13;;;;;;;25.07;17.20;;;2.50;94.40;;;;;;4705186;30;20045;-81
2023/01/24 07:43:38;;;;;;;23.03;16.50;;;2.50;94.50;;;;;;4720381;30;20053;-80
2023/01/24 07:46:04;;;;;;;23.23;16.30;;;2.50;94.60;;;;;;4711295;30;20593;-80
2023/01/24 07:48:30;;;;;;;22.87;16.10;;;2.50;94.60;;;;;;4710627;30;20102;-80
2023/01/24 07:50:59;;;;;;;23.33;16.10;;;2.50;94.60;;;;;;4710450;30;20180;-80
2023/01/24 07:53:25;;;;;;;22.47;15.60;;;2.50;94.60;;;;;;4709411;30;20041;-80
2023/01/24 07:55:51;;;;;;;23.47;16.07;;;2.50;94.50;;;;;;4707872;30;20195;-78
2023/01/24 07:58:16;;;;;;;24.20;16.83;;;2.50;94.60;;;;;;4708013;30;20579;-80
2023/01/24 08:00:44;;;;;;;23.97;16.10;;;2.50;94.70;;;;;;4706098;30;20068;-81
2023/01/24 08:03:09;;;;;;;23.50;16.80;;;2.50;94.80;;;;;;4706925;30;20518;-79
2023/01/24 08:05:37;;;;;;;27.17;17.67;;;2.50;94.40;;;;;;4708261;30;20059;-80
2023/01/24 08:08:03;;;;;;;25.97;17.30;;;2.50;94.50;;;;;;4725807;30;20088;-79
2023/01/24 08:10:29;;;;;;;24.87;16.93;;;2.50;94.70;;;;;;4707006;30;20630;-80
2023/01/24 08:12:55;;;;;;;25.13;17.40;;;2.50;94.80;;;;;;4720761;30;20581;-80
2023/01/24 08:15:20;;;;;;;24.77;16.83;;;2.40;94.90;;;;;;4725176;30;20169;-80
2023/01/24 08:17:46;;;;;;;25.30;17.30;;;2.50;94.90;;;;;;4724405;30;20445;-81
2023/01/24 08:20:12;;;;;;;27.90;17.17;;;2.50;94.90;;;;;;4709417;30;20044;-81
2023/01/24 08:22:39;;;;;;;22.83;15.87;;;2.50;94.80;;;;;;4705828;30;20103;-79
2023/01/24 08:25:05;;;;;;;25.67;17.77;;;2.50;94.70;;;;;;4706097;30;20063;-80
2023/01/24 08:27:31;;;;;;;24.90;16.90;;;2.50;94.60;;;;;;4706117;30;20053;-79
2023/01/24 08:29:56;;;;;;;24.70;18.10;;;2.50;94.60;;;;;;4723293;30;20052;-81
2023/01/24 08:32:22;;;;;;;27.27;18.90;;;2.50;94.60;;;;;;4708980;30;20509;-81
2023/01/24 08:34:48;;;;;;;26.83;18.63;;;2.50;94.70;;;;;;4693774;30;20149;-78
2023/01/24 08:37:13;;;;;;;28.17;19.93;;;2.50;94.60;;;;;;4707557;30;20084;-80
2023/01/24 08:39:39;;;;;;;26.77;19.23;;;2.50;94.50;;;;;;4691867;30;20053;-80
2023/01/24 08:42:05;;;;;;;28.07;20.33;;;2.60;94.50;;;;;;4709308;30;20049;-79
2023/01/24 08:44:30;;;;;;;27.33;19.53;;;2.60;94.40;;;;;;4726121;30;20450;-79
2023/01/24 08:46:56;;;;;;;29.33;20.47;;;2.60;94.10;;;;;;4704916;30;20493;-78
2023/01/24 08:49:21;;;;;;;27.33;19.03;;;2.60;94.30;;;;;;4724391;30;20079;-80
2023/01/24 08:51:47;;;;;;;27.13;20.67;;;2.60;94.30;;;;;;4723001;30;20064;-76
2023/01/24 08:54:14;;;;;;;27.20;20.23;;;2.60;94.30;;;;;;4707141;30;20088;-79
2023/01/24 08:56:39;;;;;;;28.73;21.00;;;2.60;94.60;;;;;;4726869;30;20098;-78
2023/01/24 08:59:05;;;;;;;30.33;21.90;;;2.60;94.30;;;;;;4705632;30;20131;-79
2023/01/24 09:01:33;;;;;;;28.93;20.63;;;2.60;94.10;;;;;;4705521;30;20045;-78
2023/01/24 09:03:59;;;;;;;28.73;21.10;;;2.60;94.20;;;;;;4723985;30;20056;-79
2023/01/24 09:06:25;;;;;;;31.43;22.23;;;2.60;94.10;;;;;;4720795;30;20083;-78
2023/01/24 09:08:53;;;;;;;33.83;23.87;;;2.60;94.20;;;;;;4708069;30;20049;-78
2023/01/24 09:11:19;;;;;;;29.37;22.27;;;2.60;94.20;;;;;;4722903;30;20055;-77
2023/01/24 09:13:44;;;;;;;29.33;22.13;;;2.60;94.20;;;;;;4722670;30;20045;-80
2023/01/24 09:16:10;;;;;;;29.13;21.53;;;2.60;94.00;;;;;;4724514;30;20135;-76
2023/01/24 09:18:35;;;;;;;30.90;22.47;;;2.60;94.10;;;;;;4707847;30;20082;-77
2023/01/24 09:21:02;;;;;;;29.27;22.30;;;2.60;94.10;;;;;;4711036;30;20063;-77
2023/01/24 09:23:28;;;;;;;31.23;21.93;;;2.60;94.30;;;;;;4719162;30;20197;-80
2023/01/24 09:25:54;;;;;;;29.00;21.70;;;2.60;94.00;;;;;;4722212;30;20581;-80
2023/01/24 09:28:20;;;;;;;29.17;22.20;;;2.60;94.10;;;;;;4709075;30;20044;-77
2023/01/24 09:30:47;;;;;;;30.60;23.03;;;2.50;93.90;;;;;;4721612;30;20056;-78
2023/01/24 09:33:14;;;;;;;30.17;22.67;;;2.60;94.10;;;;;;4706254;30;20057;-78
2023/01/24 09:35:39;;;;;;;28.77;20.87;;;2.60;94.30;;;;;;4719149;30;20137;-77
2023/01/24 09:38:05;;;;;;;32.60;22.63;;;2.60;94.30;;;;;;4724695;30;20040;-77
2023/01/24 09:40:44;;;;;;;31.60;22.70;;;2.60;94.40;;;;;;4709883;30;20047;-79
2023/01/24 09:43:20;;;;;;;35.43;23.57;;;2.60;94.40;;;;;;4706392;30;20489;-78
2023/01/24 09:45:56;;;;;;;32.77;23.37;;;2.60;94.50;;;;;;4707157;30;20068;-77
2023/01/24 09:48:23;;;;;;;34.37;23.20;;;2.70;94.60;;;;;;4708518;30;20056;-78
2023/01/24 09:50:54;;;;;;;31.77;22.87;;;2.60;94.30;;;;;;4707411;30;20056;-80
2023/01/24 09:53:25;;;;;;;31.23;22.97;;;2.70;94.20;;;;;;4692190;30;20053;-77
2023/01/24 09:55:52;;;;;;;30.33;21.70;;;2.70;94.30;;;;;;4708179;30;20095;-77
2023/01/24 09:58:28;;;;;;;30.20;22.43;;;2.70;94.30;;;;;;4718882;30;20051;-76
2023/01/24 10:00:54;;;;;;;30.33;22.83;;;2.70;94.10;;;;;;4707205;30;20076;-78
2023/01/24 10:03:22;;;;;;;33.40;22.53;;;2.70;94.20;;;;;;4706078;30;20048;-77
2023/01/24 10:05:51;;;;;;;29.03;22.40;;;2.70;94.10;;;;;;4707795;30;20084;-77
2023/01/24 10:08:37;;;;;;;32.25;23.33;;;2.70;93.70;;;;;;4720966;30;20063;-76
2023/01/24 10:11:43;;;;;;;31.13;23.47;;;2.70;94.00;;;;;;4719058;30;20056;-79
2023/01/24 10:14:44;;;;;;;30.47;22.10;;;2.70;94.10;;;;;;4703527;30;20059;-79
2023/01/24 10:17:35;;;;;;;30.33;23.70;;;2.70;94.00;;;;;;4716231;30;20067;-78
2023/01/24 10:20:33;;;;;;;30.53;23.43;;;2.70;94.20;;;;;;4697146;30;20493;-79
2023/01/24 10:23:12;;;;;;;30.97;24.10;;;2.70;94.10;;;;;;4718521;30;20106;-80
2023/01/24 10:25:50;;;;;;;35.47;25.80;;;2.70;93.70;;;;;;4723663;30;20132;-78
2023/01/24 10:28:22;;;;;;;33.97;24.58;;;2.70;93.80;;;;;;4704708;30;20110;-78
2023/01/24 10:30:53;;;;;;;31.73;23.83;;;2.70;94.00;;;;;;4720373;30;20052;-77
2023/01/24 10:33:19;;;;;;;31.00;23.43;;;2.80;94.00;;;;;;4705850;30;20040;-76
2023/01/24 10:36:03;;;;;;;32.53;24.13;;;2.80;94.10;;;;;;4723646;30;20088;-76
2023/01/24 10:38:29;;;;;;;30.40;23.50;;;2.80;93.90;;;;;;4719190;30;20069;-77
2023/01/24 10:41:15;;;;;;;31.80;23.03;;;2.90;94.00;;;;;;4708000;30;20157;-77
2023/01/24 10:43:44;;;;;;;29.73;23.53;;;2.90;93.90;;;;;;4705700;30;20076;-78
2023/01/24 10:46:31;;;;;;;31.60;24.10;;;2.90;93.90;;;;;;4705654;30;20053;-79
2023/01/24 10:48:59;;;;;;;30.67;22.70;;;2.80;93.70;;;;;;4713796;30;20132;-80
2023/01/24 10:51:25;;;;;;;29.65;22.08;;;2.80;93.50;;;;;;4707459;30;20059;-80
2023/01/24 10:53:54;;;;;;;31.67;22.00;;;2.80;93.60;;;;;;4721957;30;20060;-81
2023/01/24 10:56:20;;;;;;;;;;;2.70;93.30;;;;;;4723312;30;20434;-81
2023/01/24 10:59:11;;;;;;;30.70;22.43;;;2.70;93.40;;;;;;4720342;30;19933;-81
2023/01/24 11:01:42;;;;;;;28.37;21.50;;;2.70;93.60;;;;;;4702577;30;20052;-81
2023/01/24 11:04:29;;;;;;;33.17;24.33;;;2.70;93.60;;;;;;4704142;30;20114;-82
2023/01/24 11:06:55;;;;;;;30.53;22.80;;;2.80;93.80;;;;;;4707884;30;20119;-82
2023/01/24 11:09:27;;;;;;;31.63;23.27;;;2.80;93.80;;;;;;4722840;30;20056;-83
2023/01/24 11:11:54;;;;;;;32.80;24.13;;;2.80;93.70;;;;;;4690494;30;20395;-79
2023/01/24 11:14:25;;;;;;;32.53;24.23;;;2.80;93.70;;;;;;4723538;30;20064;-83
2023/01/24 11:16:54;;;;;;;32.03;23.63;;;2.80;93.80;;;;;;4709408;30;20110;-83
2023/01/24 11:19:30;;;;;;;;;;;2.80;93.90;;;;;;4708390;30;20044;-81
2023/01/24 11:22:19;;;;;;;32.60;22.23;;;2.90;93.60;;;;;;4724091;30;19934;-82
2023/01/24 11:24:45;;;;;;;28.27;21.33;;;2.90;93.70;;;;;;4698148;30;20094;-83
2023/01/24 11:27:20;;;;;;;27.27;21.47;;;3.00;93.70;;;;;;4711165;30;20048;-82
2023/01/24 11:30:05;;;;;;;28.20;21.23;;;3.00;93.60;;;;;;4706516;30;20084;-83
2023/01/24 11:32:56;;;;;;;30.23;22.27;;;3.00;93.80;;;;;;4728593;30;20080;-82
2023/01/24 11:35:37;;;;;;;31.10;24.03;;;3.10;93.40;;;;;;4706362;30;20045;-81
2023/01/24 11:38:41;;;;;;;29.70;21.63;;;3.10;93.40;;;;;;4723805;30;20123;-80
2023/01/24 11:41:15;;;;;;;27.87;21.40;;;3.10;93.30;;;;;;4707321;30;20115;-81
2023/01/24 11:44:26;;;;;;;31.80;21.67;;;3.10;93.40;;;;;;4711015;30;20045;-81
2023/01/24 11:47:06;;;;;;;30.23;21.37;;;3.20;93.20;;;;;;4721583;30;20083;-80
2023/01/24 11:50:02;;;;;;;27.13;21.33;;;3.20;93.30;;;;;;4723263;30;20049;-80
2023/01/24 11:52:45;;;;;;;29.43;20.77;;;3.20;93.40;;;;;;4726026;30;20070;-81
2023/01/24 11:55:30;;;;;;;33.33;21.63;;;3.20;93.40;;;;;;4724705;30;20560;-80
2023/01/24 11:58:23;;;;;;;27.93;20.27;;;3.20;93.50;;;;;;4707639;30;20534;-79
2023/01/24 12:01:08;;;;;;;24.80;18.10;;;3.20;93.40;;;;;;4706457;30;20165;-79
2023/01/24 12:03:40;;;;;;;29.67;19.67;;;3.20;93.30;;;;;;4726180;30;20067;-80
2023/01/24 12:06:34;;;;;;;26.17;18.67;;;3.20;93.30;;;;;;4696077;30;20084;-81
2023/01/24 12:09:19;;;;;;;26.27;19.10;;;3.10;93.30;;;;;;4710813;30;20065;-79
2023/01/24 12:12:05;;;;;;;25.70;18.10;;;3.00;93.10;;;;;;4720437;30;20110;-80
2023/01/24 12:14:49;;;;;;;27.20;18.47;;;2.90;93.10;;;;;;4708481;30;20063;-80
2023/01/24 12:17:42;;;;;;;25.87;18.53;;;2.90;93.30;;;;;;4717246;30;20057;-80
2023/01/24 12:20:41;;;;;;;24.47;18.37;;;2.90;93.30;;;;;;4724540;30;20107;-81
2023/01/24 12:23:55;;;;;;;29.00;20.00;;;2.90;93.40;;;;;;4709541;30;20711;-79
2023/01/24 12:26:25;;;;;;;27.37;20.50;;;2.90;93.50;;;;;;4694627;30;20143;-80
2023/01/24 12:29:08;;;;;;;28.97;19.40;;;2.90;93.60;;;;;;4710620;30;20045;-79
2023/01/24 12:32:09;;;;;;;26.50;18.60;;;2.90;93.50;;;;;;4723823;30;20040;-80
2023/01/24 12:35:03;;;;;;;28.37;18.30;;;2.90;93.70;;;;;;4710151;30;20044;-80
2023/01/24 12:38:02;;;;;;;24.63;17.47;;;2.90;93.50;;;;;;4709155;30;20044;-80
2023/01/24 12:40:47;;;;;;;;;;;2.90;93.50;;;;;;4715606;30;20087;-79
2023/01/24 12:43:33;;;;;;;29.07;18.87;;;2.90;93.50;;;;;;4707997;30;20377;-79
2023/01/24 12:46:29;;;;;;;28.93;19.50;;;2.90;93.70;;;;;;4728530;30;20067;-80
2023/01/24 12:49:13;;;;;;;26.47;19.07;;;2.90;93.70;;;;;;4722164;30;20770;-80
2023/01/24 12:51:45;;;;;;;28.57;20.20;;;2.90;93.70;;;;;;4703474;30;20087;-79
2023/01/24 12:54:20;;;;;;;27.63;20.40;;;2.90;93.60;;;;;;4705823;30;20049;-80
2023/01/24 12:56:59;;;;;;;28.23;19.83;;;2.80;93.60;;;;;;4703710;30;20057;-80
2023/01/24 12:59:26;;;;;;;;;;;2.90;93.60;;;;;;4719992;30;20501;-81
2023/01/24 13:02:29;;;;;;;28.43;18.40;;;2.80;93.40;;;;;;4717207;30;20950;-78
2023/01/24 13:05:09;;;;;;;29.47;20.03;;;2.80;94.00;;;;;;4704695;30;20049;-79
2023/01/24 13:07:56;;;;;;;26.00;19.03;;;2.70;93.70;;;;;;4718297;30;20052;-80
2023/01/24 13:10:27;;;;;;;30.40;19.97;;;2.80;94.00;;;;;;4717169;30;20058;-79
2023/01/24 13:12:54;;;;;;;28.37;19.87;;;2.80;94.00;;;;;;4705806;30;21445;-80
2023/01/24 13:16:10;;;;;;;28.73;19.13;;;2.70;93.80;;;;;;4706152;30;20052;-80
2023/01/24 13:22:39;;;;;;;28.90;20.97;;;2.70;93.90;;;;;;4691052;30;20148;-78
2023/01/24 13:25:27;;;;;;;30.27;21.50;;;2.60;93.70;;;;;;4720995;30;20057;-78
2023/01/24 13:28:15;;;;;;;31.10;21.85;;;2.60;94.00;;;;;;4702275;30;20048;-79
2023/01/24 13:31:02;;;;;;;28.08;20.60;;;2.60;94.00;;;;;;4720484;30;20422;-79
2023/01/24 13:33:40;;;;;;;32.30;21.97;;;2.60;93.90;;;;;;4703332;30;20136;-79
2023/01/24 13:36:06;;;;;;;32.03;22.03;;;2.60;93.90;;;;;;4718584;30;20053;-79
2023/01/24 13:38:41;;;;;;;31.93;21.50;;;2.60;94.00;;;;;;4718575;30;20056;-80
2023/01/24 13:41:14;;;;;;;27.57;19.10;;;2.60;94.20;;;;;;4716311;30;20045;-79
2023/01/24 13:43:59;;;;;;;29.90;20.13;;;2.60;94.00;;;;;;4713123;30;20072;-78